sensor_id;sensor_type;location;lat;lon;timestamp;P1;durP1;ratioP1;P2;durP2;ratioP2
53877;SDS011;39790;53.144;6.424;2022-07-23T00:01:19;4.35;;;2.45;;
53877;SDS011;39790;53.144;6.424;2022-07-23T00:03:45;3.90;;;2.90;;
53877;SDS011;39790;53.144;6.424;2022-07-23T00:06:11;3.85;;;2.35;;
53877;SDS011;39790;53.144;6.424;2022-07-23T00:08:36;5.40;;;2.95;;
53877;SDS011;39790;53.144;6.424;2022-07-23T00:11:02;6.93;;;3.00;;
53877;SDS011;39790;53.144;6.424;2022-07-23T00:13:27;5.55;;;2.65;;
53877;SDS011;39790;53.144;6.424;2022-07-23T00:15:53;6.65;;;3.30;;
53877;SDS011;39790;53.144;6.424;2022-07-23T00:18:20;3.80;;;2.42;;
53877;SDS011;39790;53.144;6.424;2022-07-23T00:20:45;7.75;;;3.17;;
53877;SDS011;39790;53.144;6.424;2022-07-23T00:23:11;4.53;;;2.63;;
53877;SDS011;39790;53.144;6.424;2022-07-23T00:25:37;4.60;;;2.60;;
53877;SDS011;39790;53.144;6.424;2022-07-23T00:28:02;6.10;;;3.00;;
53877;SDS011;39790;53.144;6.424;2022-07-23T00:30:29;6.22;;;3.13;;
53877;SDS011;39790;53.144;6.424;2022-07-23T00:32:57;4.65;;;2.72;;
53877;SDS011;39790;53.144;6.424;2022-07-23T00:35:25;8.50;;;3.88;;
53877;SDS011;39790;53.144;6.424;2022-07-23T00:37:53;4.07;;;3.00;;
53877;SDS011;39790;53.144;6.424;2022-07-23T00:40:19;6.00;;;2.80;;
53877;SDS011;39790;53.144;6.424;2022-07-23T00:42:45;4.97;;;2.47;;
53877;SDS011;39790;53.144;6.424;2022-07-23T00:45:10;6.28;;;3.22;;
53877;SDS011;39790;53.144;6.424;2022-07-23T00:47:36;4.22;;;2.60;;
53877;SDS011;39790;53.144;6.424;2022-07-23T00:50:03;5.25;;;2.83;;
53877;SDS011;39790;53.144;6.424;2022-07-23T00:52:30;7.47;;;2.92;;
53877;SDS011;39790;53.144;6.424;2022-07-23T00:54:57;4.93;;;2.53;;
53877;SDS011;39790;53.144;6.424;2022-07-23T00:57:22;3.42;;;2.85;;
53877;SDS011;39790;53.144;6.424;2022-07-23T00:59:48;4.68;;;2.67;;
53877;SDS011;39790;53.144;6.424;2022-07-23T01:02:14;3.95;;;2.28;;
53877;SDS011;39790;53.144;6.424;2022-07-23T01:04:39;4.90;;;2.97;;
53877;SDS011;39790;53.144;6.424;2022-07-23T01:07:05;6.03;;;3.25;;
53877;SDS011;39790;53.144;6.424;2022-07-23T01:09:31;5.05;;;3.60;;
53877;SDS011;39790;53.144;6.424;2022-07-23T01:11:57;4.30;;;2.75;;
53877;SDS011;39790;53.144;6.424;2022-07-23T01:14:24;5.28;;;3.70;;
53877;SDS011;39790;53.144;6.424;2022-07-23T01:16:49;5.07;;;3.17;;
53877;SDS011;39790;53.144;6.424;2022-07-23T01:19:16;5.20;;;2.97;;
53877;SDS011;39790;53.144;6.424;2022-07-23T01:21:43;5.70;;;3.80;;
53877;SDS011;39790;53.144;6.424;2022-07-23T01:24:13;4.93;;;3.33;;
53877;SDS011;39790;53.144;6.424;2022-07-23T01:26:40;3.78;;;2.75;;
53877;SDS011;39790;53.144;6.424;2022-07-23T01:29:08;6.18;;;3.20;;
53877;SDS011;39790;53.144;6.424;2022-07-23T01:31:33;4.60;;;3.20;;
53877;SDS011;39790;53.144;6.424;2022-07-23T01:33:59;4.22;;;2.90;;
53877;SDS011;39790;53.144;6.424;2022-07-23T01:36:25;5.60;;;3.60;;
53877;SDS011;39790;53.144;6.424;2022-07-23T01:38:50;4.95;;;3.85;;
53877;SDS011;39790;53.144;6.424;2022-07-23T01:41:16;7.40;;;3.40;;
53877;SDS011;39790;53.144;6.424;2022-07-23T01:43:42;5.50;;;3.40;;
53877;SDS011;39790;53.144;6.424;2022-07-23T01:46:08;6.68;;;3.97;;
53877;SDS011;39790;53.144;6.424;2022-07-23T01:48:34;5.18;;;3.55;;
53877;SDS011;39790;53.144;6.424;2022-07-23T01:51:00;6.50;;;3.42;;
53877;SDS011;39790;53.144;6.424;2022-07-23T01:53:26;4.15;;;3.15;;
53877;SDS011;39790;53.144;6.424;2022-07-23T01:55:51;6.95;;;3.88;;
53877;SDS011;39790;53.144;6.424;2022-07-23T01:58:17;5.90;;;3.03;;
53877;SDS011;39790;53.144;6.424;2022-07-23T02:00:42;4.45;;;3.30;;
53877;SDS011;39790;53.144;6.424;2022-07-23T02:03:08;4.25;;;2.72;;
53877;SDS011;39790;53.144;6.424;2022-07-23T02:05:34;4.85;;;3.28;;
53877;SDS011;39790;53.144;6.424;2022-07-23T02:07:59;4.32;;;3.38;;
53877;SDS011;39790;53.144;6.424;2022-07-23T02:10:26;4.68;;;3.33;;
53877;SDS011;39790;53.144;6.424;2022-07-23T02:12:52;5.60;;;3.47;;
53877;SDS011;39790;53.144;6.424;2022-07-23T02:15:18;5.95;;;3.28;;
53877;SDS011;39790;53.144;6.424;2022-07-23T02:17:44;7.60;;;3.70;;
53877;SDS011;39790;53.144;6.424;2022-07-23T02:20:10;5.35;;;3.53;;
53877;SDS011;39790;53.144;6.424;2022-07-23T02:22:36;4.50;;;3.42;;
53877;SDS011;39790;53.144;6.424;2022-07-23T02:25:03;5.68;;;3.45;;
53877;SDS011;39790;53.144;6.424;2022-07-23T02:27:30;6.93;;;3.58;;
53877;SDS011;39790;53.144;6.424;2022-07-23T02:29:55;7.05;;;4.10;;
53877;SDS011;39790;53.144;6.424;2022-07-23T02:32:22;4.88;;;3.42;;
53877;SDS011;39790;53.144;6.424;2022-07-23T02:34:48;8.02;;;4.45;;
53877;SDS011;39790;53.144;6.424;2022-07-23T02:37:14;6.20;;;3.42;;
53877;SDS011;39790;53.144;6.424;2022-07-23T02:39:40;6.97;;;3.53;;
53877;SDS011;39790;53.144;6.424;2022-07-23T02:42:05;6.18;;;4.40;;
53877;SDS011;39790;53.144;6.424;2022-07-23T02:44:31;5.00;;;3.58;;
53877;SDS011;39790;53.144;6.424;2022-07-23T02:46:57;6.07;;;4.00;;
53877;SDS011;39790;53.144;6.424;2022-07-23T02:49:22;6.03;;;3.65;;
53877;SDS011;39790;53.144;6.424;2022-07-23T02:51:48;5.70;;;3.38;;
53877;SDS011;39790;53.144;6.424;2022-07-23T02:54:14;4.95;;;3.53;;
53877;SDS011;39790;53.144;6.424;2022-07-23T02:56:40;4.95;;;3.42;;
53877;SDS011;39790;53.144;6.424;2022-07-23T02:59:05;5.30;;;3.97;;
53877;SDS011;39790;53.144;6.424;2022-07-23T03:01:31;5.90;;;4.30;;
53877;SDS011;39790;53.144;6.424;2022-07-23T03:03:56;5.70;;;4.63;;
53877;SDS011;39790;53.144;6.424;2022-07-23T03:06:22;6.70;;;4.38;;
53877;SDS011;39790;53.144;6.424;2022-07-23T03:08:48;5.43;;;4.13;;
53877;SDS011;39790;53.144;6.424;2022-07-23T03:11:13;6.10;;;3.85;;
53877;SDS011;39790;53.144;6.424;2022-07-23T03:13:39;5.40;;;3.60;;
53877;SDS011;39790;53.144;6.424;2022-07-23T03:16:05;4.30;;;3.15;;
53877;SDS011;39790;53.144;6.424;2022-07-23T03:18:32;5.43;;;3.35;;
53877;SDS011;39790;53.144;6.424;2022-07-23T03:20:58;5.20;;;3.60;;
53877;SDS011;39790;53.144;6.424;2022-07-23T03:23:23;4.55;;;3.45;;
53877;SDS011;39790;53.144;6.424;2022-07-23T03:25:49;5.43;;;3.83;;
53877;SDS011;39790;53.144;6.424;2022-07-23T03:28:15;5.07;;;3.40;;
53877;SDS011;39790;53.144;6.424;2022-07-23T03:30:44;4.15;;;3.47;;
53877;SDS011;39790;53.144;6.424;2022-07-23T03:33:15;9.90;;;3.60;;
53877;SDS011;39790;53.144;6.424;2022-07-23T03:35:43;5.65;;;3.70;;
53877;SDS011;39790;53.144;6.424;2022-07-23T03:38:09;5.88;;;4.15;;
53877;SDS011;39790;53.144;6.424;2022-07-23T03:40:34;5.00;;;3.15;;
53877;SDS011;39790;53.144;6.424;2022-07-23T03:43:00;6.85;;;3.22;;
53877;SDS011;39790;53.144;6.424;2022-07-23T03:45:26;5.55;;;3.92;;
53877;SDS011;39790;53.144;6.424;2022-07-23T03:47:52;5.95;;;3.95;;
53877;SDS011;39790;53.144;6.424;2022-07-23T03:50:18;5.72;;;3.65;;
53877;SDS011;39790;53.144;6.424;2022-07-23T03:52:44;5.05;;;3.55;;
53877;SDS011;39790;53.144;6.424;2022-07-23T03:55:09;6.38;;;3.08;;
53877;SDS011;39790;53.144;6.424;2022-07-23T03:57:35;4.55;;;3.17;;
53877;SDS011;39790;53.144;6.424;2022-07-23T04:00:01;5.18;;;3.70;;
53877;SDS011;39790;53.144;6.424;2022-07-23T04:02:29;4.35;;;3.45;;
53877;SDS011;39790;53.144;6.424;2022-07-23T04:04:54;6.60;;;3.50;;
53877;SDS011;39790;53.144;6.424;2022-07-23T04:07:20;5.25;;;3.60;;
53877;SDS011;39790;53.144;6.424;2022-07-23T04:09:46;4.95;;;3.05;;
53877;SDS011;39790;53.144;6.424;2022-07-23T04:12:12;4.28;;;3.20;;
53877;SDS011;39790;53.144;6.424;2022-07-23T04:14:37;4.93;;;3.38;;
53877;SDS011;39790;53.144;6.424;2022-07-23T04:17:03;3.83;;;3.17;;
53877;SDS011;39790;53.144;6.424;2022-07-23T04:19:29;3.67;;;3.22;;
53877;SDS011;39790;53.144;6.424;2022-07-23T04:21:55;4.93;;;3.35;;
53877;SDS011;39790;53.144;6.424;2022-07-23T04:24:21;6.07;;;3.75;;
53877;SDS011;39790;53.144;6.424;2022-07-23T04:26:47;3.47;;;2.60;;
53877;SDS011;39790;53.144;6.424;2022-07-23T04:29:12;4.35;;;3.40;;
53877;SDS011;39790;53.144;6.424;2022-07-23T04:31:38;4.38;;;3.17;;
53877;SDS011;39790;53.144;6.424;2022-07-23T04:34:04;3.83;;;2.90;;
53877;SDS011;39790;53.144;6.424;2022-07-23T04:36:29;6.57;;;3.80;;
53877;SDS011;39790;53.144;6.424;2022-07-23T04:38:55;4.20;;;3.00;;
53877;SDS011;39790;53.144;6.424;2022-07-23T04:41:21;5.50;;;3.35;;
53877;SDS011;39790;53.144;6.424;2022-07-23T04:43:47;4.68;;;3.15;;
53877;SDS011;39790;53.144;6.424;2022-07-23T04:46:12;4.95;;;3.45;;
53877;SDS011;39790;53.144;6.424;2022-07-23T04:48:38;4.80;;;3.55;;
53877;SDS011;39790;53.144;6.424;2022-07-23T04:51:04;5.03;;;3.10;;
53877;SDS011;39790;53.144;6.424;2022-07-23T04:53:30;4.55;;;3.28;;
53877;SDS011;39790;53.144;6.424;2022-07-23T04:55:56;5.22;;;3.45;;
53877;SDS011;39790;53.144;6.424;2022-07-23T04:58:23;4.40;;;3.20;;
53877;SDS011;39790;53.144;6.424;2022-07-23T05:00:49;5.70;;;3.20;;
53877;SDS011;39790;53.144;6.424;2022-07-23T05:03:15;9.00;;;3.47;;
53877;SDS011;39790;53.144;6.424;2022-07-23T05:05:40;4.07;;;2.97;;
53877;SDS011;39790;53.144;6.424;2022-07-23T05:08:06;3.63;;;2.53;;
53877;SDS011;39790;53.144;6.424;2022-07-23T05:10:31;3.58;;;2.55;;
53877;SDS011;39790;53.144;6.424;2022-07-23T05:12:57;4.53;;;2.60;;
53877;SDS011;39790;53.144;6.424;2022-07-23T05:15:23;5.75;;;3.00;;
53877;SDS011;39790;53.144;6.424;2022-07-23T05:17:48;4.18;;;2.55;;
53877;SDS011;39790;53.144;6.424;2022-07-23T05:20:14;4.32;;;3.05;;
53877;SDS011;39790;53.144;6.424;2022-07-23T05:22:40;4.28;;;2.60;;
53877;SDS011;39790;53.144;6.424;2022-07-23T05:25:06;4.63;;;2.47;;
53877;SDS011;39790;53.144;6.424;2022-07-23T05:27:32;4.45;;;2.85;;
53877;SDS011;39790;53.144;6.424;2022-07-23T05:29:57;4.50;;;3.00;;
53877;SDS011;39790;53.144;6.424;2022-07-23T05:32:23;7.82;;;2.72;;
53877;SDS011;39790;53.144;6.424;2022-07-23T05:34:49;3.70;;;2.28;;
53877;SDS011;39790;53.144;6.424;2022-07-23T05:37:15;4.40;;;2.60;;
53877;SDS011;39790;53.144;6.424;2022-07-23T05:39:40;4.97;;;2.75;;
53877;SDS011;39790;53.144;6.424;2022-07-23T05:42:06;3.47;;;2.53;;
53877;SDS011;39790;53.144;6.424;2022-07-23T05:44:32;4.25;;;2.50;;
53877;SDS011;39790;53.144;6.424;2022-07-23T05:46:58;3.80;;;2.45;;
53877;SDS011;39790;53.144;6.424;2022-07-23T05:49:24;3.72;;;2.20;;
53877;SDS011;39790;53.144;6.424;2022-07-23T05:51:49;3.83;;;2.15;;
53877;SDS011;39790;53.144;6.424;2022-07-23T05:54:15;3.30;;;2.15;;
53877;SDS011;39790;53.144;6.424;2022-07-23T05:56:40;2.90;;;2.10;;
53877;SDS011;39790;53.144;6.424;2022-07-23T05:59:06;3.95;;;2.30;;
53877;SDS011;39790;53.144;6.424;2022-07-23T06:01:32;3.67;;;1.85;;
53877;SDS011;39790;53.144;6.424;2022-07-23T06:03:57;3.47;;;1.90;;
53877;SDS011;39790;53.144;6.424;2022-07-23T06:06:23;2.80;;;1.73;;
53877;SDS011;39790;53.144;6.424;2022-07-23T06:08:48;2.75;;;1.65;;
53877;SDS011;39790;53.144;6.424;2022-07-23T06:11:14;3.53;;;1.88;;
53877;SDS011;39790;53.144;6.424;2022-07-23T06:13:39;2.42;;;1.55;;
53877;SDS011;39790;53.144;6.424;2022-07-23T06:16:05;2.05;;;1.40;;
53877;SDS011;39790;53.144;6.424;2022-07-23T06:18:31;5.60;;;2.10;;
53877;SDS011;39790;53.144;6.424;2022-07-23T06:20:56;3.30;;;1.33;;
53877;SDS011;39790;53.144;6.424;2022-07-23T06:23:22;4.22;;;1.52;;
53877;SDS011;39790;53.144;6.424;2022-07-23T06:25:47;3.58;;;1.33;;
53877;SDS011;39790;53.144;6.424;2022-07-23T06:28:13;4.32;;;1.50;;
53877;SDS011;39790;53.144;6.424;2022-07-23T06:30:38;5.38;;;1.42;;
53877;SDS011;39790;53.144;6.424;2022-07-23T06:33:04;3.58;;;1.38;;
53877;SDS011;39790;53.144;6.424;2022-07-23T06:35:30;4.60;;;1.63;;
53877;SDS011;39790;53.144;6.424;2022-07-23T06:37:55;1.75;;;1.10;;
53877;SDS011;39790;53.144;6.424;2022-07-23T06:40:21;2.95;;;0.90;;
53877;SDS011;39790;53.144;6.424;2022-07-23T06:42:47;1.48;;;0.93;;
53877;SDS011;39790;53.144;6.424;2022-07-23T06:45:12;2.38;;;0.90;;
53877;SDS011;39790;53.144;6.424;2022-07-23T06:47:38;2.28;;;0.60;;
53877;SDS011;39790;53.144;6.424;2022-07-23T06:50:04;2.05;;;0.60;;
53877;SDS011;39790;53.144;6.424;2022-07-23T06:52:30;1.02;;;0.60;;
53877;SDS011;39790;53.144;6.424;2022-07-23T06:54:56;2.72;;;0.77;;
53877;SDS011;39790;53.144;6.424;2022-07-23T06:57:21;0.95;;;0.50;;
53877;SDS011;39790;53.144;6.424;2022-07-23T06:59:48;1.40;;;0.75;;
53877;SDS011;39790;53.144;6.424;2022-07-23T07:02:13;3.72;;;0.68;;
53877;SDS011;39790;53.144;6.424;2022-07-23T07:04:39;0.85;;;0.60;;
53877;SDS011;39790;53.144;6.424;2022-07-23T07:07:04;1.27;;;0.65;;
53877;SDS011;39790;53.144;6.424;2022-07-23T07:09:30;1.73;;;0.65;;
53877;SDS011;39790;53.144;6.424;2022-07-23T07:11:56;0.88;;;0.50;;
53877;SDS011;39790;53.144;6.424;2022-07-23T07:14:21;2.00;;;0.60;;
53877;SDS011;39790;53.144;6.424;2022-07-23T07:16:47;1.35;;;0.70;;
53877;SDS011;39790;53.144;6.424;2022-07-23T07:19:13;1.05;;;0.70;;
53877;SDS011;39790;53.144;6.424;2022-07-23T07:21:38;2.15;;;0.60;;
53877;SDS011;39790;53.144;6.424;2022-07-23T07:24:04;0.88;;;0.57;;
53877;SDS011;39790;53.144;6.424;2022-07-23T07:26:30;1.60;;;0.60;;
53877;SDS011;39790;53.144;6.424;2022-07-23T07:28:56;0.73;;;0.60;;
53877;SDS011;39790;53.144;6.424;2022-07-23T07:31:22;0.80;;;0.70;;
53877;SDS011;39790;53.144;6.424;2022-07-23T07:33:47;1.30;;;0.60;;
53877;SDS011;39790;53.144;6.424;2022-07-23T07:36:13;2.33;;;0.60;;
53877;SDS011;39790;53.144;6.424;2022-07-23T07:38:38;1.00;;;0.70;;
53877;SDS011;39790;53.144;6.424;2022-07-23T07:41:04;1.08;;;0.40;;
53877;SDS011;39790;53.144;6.424;2022-07-23T07:43:30;1.17;;;0.60;;
53877;SDS011;39790;53.144;6.424;2022-07-23T07:45:55;1.63;;;0.50;;
53877;SDS011;39790;53.144;6.424;2022-07-23T07:48:21;0.77;;;0.60;;
53877;SDS011;39790;53.144;6.424;2022-07-23T07:50:46;0.57;;;0.40;;
53877;SDS011;39790;53.144;6.424;2022-07-23T07:53:12;1.17;;;0.60;;
53877;SDS011;39790;53.144;6.424;2022-07-23T07:55:37;0.80;;;0.50;;
53877;SDS011;39790;53.144;6.424;2022-07-23T07:58:03;0.60;;;0.35;;
53877;SDS011;39790;53.144;6.424;2022-07-23T08:00:29;6.30;;;0.85;;
53877;SDS011;39790;53.144;6.424;2022-07-23T08:02:54;4.45;;;0.88;;
53877;SDS011;39790;53.144;6.424;2022-07-23T08:05:24;3.35;;;0.63;;
53877;SDS011;39790;53.144;6.424;2022-07-23T08:07:51;1.88;;;0.70;;
53877;SDS011;39790;53.144;6.424;2022-07-23T08:10:17;0.65;;;0.50;;
53877;SDS011;39790;53.144;6.424;2022-07-23T08:12:47;1.70;;;0.50;;
53877;SDS011;39790;53.144;6.424;2022-07-23T08:15:14;1.02;;;0.50;;
53877;SDS011;39790;53.144;6.424;2022-07-23T08:17:42;2.88;;;0.70;;
53877;SDS011;39790;53.144;6.424;2022-07-23T08:20:09;3.47;;;0.55;;
53877;SDS011;39790;53.144;6.424;2022-07-23T08:25:31;2.10;;;0.63;;
53877;SDS011;39790;53.144;6.424;2022-07-23T08:28:05;3.17;;;0.70;;
53877;SDS011;39790;53.144;6.424;2022-07-23T08:30:33;1.70;;;0.82;;
53877;SDS011;39790;53.144;6.424;2022-07-23T08:33:01;2.80;;;0.52;;
53877;SDS011;39790;53.144;6.424;2022-07-23T08:37:59;3.80;;;0.70;;
53877;SDS011;39790;53.144;6.424;2022-07-23T08:40:28;1.77;;;0.77;;
53877;SDS011;39790;53.144;6.424;2022-07-23T08:42:55;2.28;;;1.05;;
53877;SDS011;39790;53.144;6.424;2022-07-23T08:45:22;2.83;;;0.60;;
53877;SDS011;39790;53.144;6.424;2022-07-23T08:47:50;1.05;;;0.73;;
53877;SDS011;39790;53.144;6.424;2022-07-23T08:50:18;1.30;;;0.70;;
53877;SDS011;39790;53.144;6.424;2022-07-23T08:52:44;1.35;;;0.75;;
53877;SDS011;39790;53.144;6.424;2022-07-23T08:55:10;3.28;;;0.80;;
53877;SDS011;39790;53.144;6.424;2022-07-23T08:57:36;1.15;;;0.70;;
53877;SDS011;39790;53.144;6.424;2022-07-23T09:00:03;3.83;;;0.82;;
53877;SDS011;39790;53.144;6.424;2022-07-23T09:02:31;1.60;;;0.80;;
53877;SDS011;39790;53.144;6.424;2022-07-23T09:04:56;3.80;;;0.70;;
53877;SDS011;39790;53.144;6.424;2022-07-23T09:07:22;1.25;;;0.80;;
53877;SDS011;39790;53.144;6.424;2022-07-23T09:09:50;4.82;;;0.77;;
53877;SDS011;39790;53.144;6.424;2022-07-23T09:12:31;1.20;;;0.70;;
53877;SDS011;39790;53.144;6.424;2022-07-23T09:14:56;2.55;;;0.80;;
53877;SDS011;39790;53.144;6.424;2022-07-23T09:17:38;3.40;;;0.80;;
53877;SDS011;39790;53.144;6.424;2022-07-23T09:20:07;3.47;;;0.77;;
53877;SDS011;39790;53.144;6.424;2022-07-23T09:22:37;2.42;;;0.60;;
53877;SDS011;39790;53.144;6.424;2022-07-23T09:25:10;2.60;;;0.80;;
53877;SDS011;39790;53.144;6.424;2022-07-23T09:27:56;2.30;;;0.70;;
53877;SDS011;39790;53.144;6.424;2022-07-23T09:30:28;2.78;;;0.80;;
53877;SDS011;39790;53.144;6.424;2022-07-23T09:33:14;2.00;;;0.80;;
53877;SDS011;39790;53.144;6.424;2022-07-23T09:35:47;1.90;;;0.98;;
53877;SDS011;39790;53.144;6.424;2022-07-23T09:38:15;1.70;;;0.80;;
53877;SDS011;39790;53.144;6.424;2022-07-23T09:40:41;2.38;;;0.60;;
53877;SDS011;39790;53.144;6.424;2022-07-23T09:43:08;0.88;;;0.50;;
53877;SDS011;39790;53.144;6.424;2022-07-23T09:45:33;2.05;;;0.90;;
53877;SDS011;39790;53.144;6.424;2022-07-23T09:48:13;2.22;;;0.80;;
53877;SDS011;39790;53.144;6.424;2022-07-23T09:50:40;1.88;;;0.60;;
53877;SDS011;39790;53.144;6.424;2022-07-23T09:53:07;2.92;;;1.08;;
53877;SDS011;39790;53.144;6.424;2022-07-23T09:55:33;3.97;;;0.85;;
53877;SDS011;39790;53.144;6.424;2022-07-23T09:58:04;0.88;;;0.70;;
53877;SDS011;39790;53.144;6.424;2022-07-23T10:00:32;2.63;;;0.70;;
53877;SDS011;39790;53.144;6.424;2022-07-23T10:02:58;2.88;;;1.00;;
53877;SDS011;39790;53.144;6.424;2022-07-23T10:05:25;4.43;;;0.80;;
53877;SDS011;39790;53.144;6.424;2022-07-23T10:07:51;1.75;;;0.63;;
53877;SDS011;39790;53.144;6.424;2022-07-23T10:10:18;1.02;;;0.68;;
53877;SDS011;39790;53.144;6.424;2022-07-23T10:12:46;9.70;;;0.90;;
53877;SDS011;39790;53.144;6.424;2022-07-23T10:15:27;2.70;;;0.70;;
53877;SDS011;39790;53.144;6.424;2022-07-23T10:17:53;5.15;;;1.13;;
53877;SDS011;39790;53.144;6.424;2022-07-23T10:20:19;3.10;;;1.10;;
53877;SDS011;39790;53.144;6.424;2022-07-23T10:22:53;2.45;;;0.90;;
53877;SDS011;39790;53.144;6.424;2022-07-23T10:28:16;2.47;;;0.80;;
53877;SDS011;39790;53.144;6.424;2022-07-23T10:31:06;2.85;;;0.70;;
53877;SDS011;39790;53.144;6.424;2022-07-23T10:33:50;3.15;;;1.20;;
53877;SDS011;39790;53.144;6.424;2022-07-23T10:36:19;3.03;;;0.80;;
53877;SDS011;39790;53.144;6.424;2022-07-23T10:38:55;2.28;;;1.13;;
53877;SDS011;39790;53.144;6.424;2022-07-23T10:41:44;3.58;;;0.90;;
53877;SDS011;39790;53.144;6.424;2022-07-23T10:44:17;2.58;;;0.98;;
53877;SDS011;39790;53.144;6.424;2022-07-23T10:46:58;1.83;;;0.90;;
53877;SDS011;39790;53.144;6.424;2022-07-23T10:49:34;1.67;;;1.02;;
53877;SDS011;39790;53.144;6.424;2022-07-23T10:52:19;1.45;;;0.82;;
53877;SDS011;39790;53.144;6.424;2022-07-23T10:54:56;2.75;;;0.93;;
53877;SDS011;39790;53.144;6.424;2022-07-23T10:57:49;1.95;;;1.00;;
53877;SDS011;39790;53.144;6.424;2022-07-23T11:02:45;1.75;;;1.05;;
53877;SDS011;39790;53.144;6.424;2022-07-23T11:05:13;7.07;;;1.60;;
53877;SDS011;39790;53.144;6.424;2022-07-23T11:24:03;7.72;;;1.50;;
53877;SDS011;39790;53.144;6.424;2022-07-23T11:31:54;7.30;;;2.08;;
53877;SDS011;39790;53.144;6.424;2022-07-23T11:34:30;5.30;;;1.20;;
53877;SDS011;39790;53.144;6.424;2022-07-23T11:37:01;5.95;;;1.40;;
53877;SDS011;39790;53.144;6.424;2022-07-23T11:39:28;2.75;;;1.40;;
53877;SDS011;39790;53.144;6.424;2022-07-23T11:41:55;7.28;;;1.10;;
53877;SDS011;39790;53.144;6.424;2022-07-23T11:44:28;7.20;;;1.60;;
53877;SDS011;39790;53.144;6.424;2022-07-23T11:49:29;2.53;;;1.23;;
53877;SDS011;39790;53.144;6.424;2022-07-23T11:54:30;4.55;;;1.00;;
53877;SDS011;39790;53.144;6.424;2022-07-23T11:56:56;2.50;;;1.20;;
53877;SDS011;39790;53.144;6.424;2022-07-23T11:59:24;2.78;;;1.35;;
53877;SDS011;39790;53.144;6.424;2022-07-23T12:02:01;3.60;;;1.48;;
53877;SDS011;39790;53.144;6.424;2022-07-23T12:04:44;3.22;;;1.23;;
53877;SDS011;39790;53.144;6.424;2022-07-23T12:09:49;2.08;;;1.17;;
53877;SDS011;39790;53.144;6.424;2022-07-23T12:12:15;1.95;;;1.10;;
53877;SDS011;39790;53.144;6.424;2022-07-23T12:14:51;3.20;;;1.27;;
53877;SDS011;39790;53.144;6.424;2022-07-23T12:17:18;4.70;;;1.52;;
53877;SDS011;39790;53.144;6.424;2022-07-23T12:19:44;2.60;;;1.27;;
53877;SDS011;39790;53.144;6.424;2022-07-23T12:22:11;2.28;;;1.23;;
53877;SDS011;39790;53.144;6.424;2022-07-23T12:24:53;4.35;;;1.50;;
53877;SDS011;39790;53.144;6.424;2022-07-23T12:27:23;1.80;;;1.20;;
53877;SDS011;39790;53.144;6.424;2022-07-23T12:29:49;4.07;;;1.13;;
53877;SDS011;39790;53.144;6.424;2022-07-23T12:32:22;2.00;;;1.20;;
53877;SDS011;39790;53.144;6.424;2022-07-23T12:34:50;2.72;;;1.10;;
53877;SDS011;39790;53.144;6.424;2022-07-23T12:37:37;2.33;;;1.20;;
53877;SDS011;39790;53.144;6.424;2022-07-23T12:45:23;4.18;;;1.50;;
53877;SDS011;39790;53.144;6.424;2022-07-23T12:47:50;2.38;;;1.38;;
53877;SDS011;39790;53.144;6.424;2022-07-23T12:50:41;3.20;;;1.40;;
53877;SDS011;39790;53.144;6.424;2022-07-23T12:53:38;5.03;;;1.10;;
53877;SDS011;39790;53.144;6.424;2022-07-23T12:56:13;4.47;;;1.88;;
53877;SDS011;39790;53.144;6.424;2022-07-23T12:58:53;4.90;;;1.48;;
53877;SDS011;39790;53.144;6.424;2022-07-23T13:01:23;3.38;;;1.13;;
53877;SDS011;39790;53.144;6.424;2022-07-23T13:03:56;2.88;;;1.05;;
53877;SDS011;39790;53.144;6.424;2022-07-23T13:06:25;3.60;;;1.23;;
53877;SDS011;39790;53.144;6.424;2022-07-23T13:08:51;3.45;;;1.30;;
53877;SDS011;39790;53.144;6.424;2022-07-23T13:11:17;1.58;;;0.90;;
53877;SDS011;39790;53.144;6.424;2022-07-23T13:13:43;1.45;;;0.90;;
53877;SDS011;39790;53.144;6.424;2022-07-23T13:16:11;2.85;;;1.33;;
53877;SDS011;39790;53.144;6.424;2022-07-23T13:18:36;1.70;;;0.80;;
53877;SDS011;39790;53.144;6.424;2022-07-23T13:21:02;2.53;;;0.80;;
53877;SDS011;39790;53.144;6.424;2022-07-23T13:23:28;2.42;;;0.93;;
53877;SDS011;39790;53.144;6.424;2022-07-23T13:25:54;2.05;;;1.10;;
53877;SDS011;39790;53.144;6.424;2022-07-23T13:28:20;1.95;;;1.05;;
53877;SDS011;39790;53.144;6.424;2022-07-23T13:30:47;2.10;;;1.02;;
53877;SDS011;39790;53.144;6.424;2022-07-23T13:33:14;2.85;;;0.85;;
53877;SDS011;39790;53.144;6.424;2022-07-23T13:35:42;1.42;;;0.98;;
53877;SDS011;39790;53.144;6.424;2022-07-23T13:38:07;3.05;;;1.10;;
53877;SDS011;39790;53.144;6.424;2022-07-23T13:40:35;4.53;;;1.10;;
53877;SDS011;39790;53.144;6.424;2022-07-23T13:43:04;2.08;;;0.80;;
53877;SDS011;39790;53.144;6.424;2022-07-23T13:45:31;3.60;;;1.33;;
53877;SDS011;39790;53.144;6.424;2022-07-23T13:47:57;4.60;;;1.02;;
53877;SDS011;39790;53.144;6.424;2022-07-23T13:50:22;1.33;;;0.82;;
53877;SDS011;39790;53.144;6.424;2022-07-23T13:52:48;1.42;;;1.00;;
53877;SDS011;39790;53.144;6.424;2022-07-23T13:55:14;4.75;;;1.60;;
53877;SDS011;39790;53.144;6.424;2022-07-23T13:57:40;2.80;;;0.90;;
53877;SDS011;39790;53.144;6.424;2022-07-23T14:00:06;3.40;;;1.13;;
53877;SDS011;39790;53.144;6.424;2022-07-23T14:02:34;1.90;;;1.00;;
53877;SDS011;39790;53.144;6.424;2022-07-23T14:05:01;2.22;;;0.90;;
53877;SDS011;39790;53.144;6.424;2022-07-23T14:07:28;1.90;;;1.00;;
53877;SDS011;39790;53.144;6.424;2022-07-23T14:09:53;4.40;;;1.10;;
53877;SDS011;39790;53.144;6.424;2022-07-23T14:12:19;4.95;;;1.20;;
53877;SDS011;39790;53.144;6.424;2022-07-23T14:14:44;2.10;;;0.90;;
53877;SDS011;39790;53.144;6.424;2022-07-23T14:17:10;2.70;;;1.30;;
53877;SDS011;39790;53.144;6.424;2022-07-23T14:19:36;1.85;;;0.93;;
53877;SDS011;39790;53.144;6.424;2022-07-23T14:22:01;2.03;;;0.85;;
53877;SDS011;39790;53.144;6.424;2022-07-23T14:24:27;1.55;;;0.98;;
53877;SDS011;39790;53.144;6.424;2022-07-23T14:26:52;1.55;;;1.20;;
53877;SDS011;39790;53.144;6.424;2022-07-23T14:29:18;2.88;;;1.17;;
53877;SDS011;39790;53.144;6.424;2022-07-23T14:31:44;2.17;;;1.10;;
53877;SDS011;39790;53.144;6.424;2022-07-23T14:34:09;2.78;;;1.00;;
53877;SDS011;39790;53.144;6.424;2022-07-23T14:36:36;3.72;;;1.25;;
53877;SDS011;39790;53.144;6.424;2022-07-23T14:39:03;2.97;;;1.23;;
53877;SDS011;39790;53.144;6.424;2022-07-23T14:41:28;2.50;;;1.10;;
53877;SDS011;39790;53.144;6.424;2022-07-23T14:43:54;1.92;;;1.20;;
53877;SDS011;39790;53.144;6.424;2022-07-23T14:46:20;2.30;;;1.25;;
53877;SDS011;39790;53.144;6.424;2022-07-23T14:48:46;1.80;;;1.08;;
53877;SDS011;39790;53.144;6.424;2022-07-23T14:51:12;3.17;;;1.25;;
53877;SDS011;39790;53.144;6.424;2022-07-23T14:53:37;2.08;;;1.00;;
53877;SDS011;39790;53.144;6.424;2022-07-23T14:56:04;2.20;;;1.00;;
53877;SDS011;39790;53.144;6.424;2022-07-23T14:58:29;2.25;;;1.20;;
53877;SDS011;39790;53.144;6.424;2022-07-23T15:00:55;2.85;;;1.15;;
53877;SDS011;39790;53.144;6.424;2022-07-23T15:03:21;1.98;;;1.10;;
53877;SDS011;39790;53.144;6.424;2022-07-23T15:05:46;2.50;;;1.08;;
53877;SDS011;39790;53.144;6.424;2022-07-23T15:08:12;4.78;;;1.33;;
53877;SDS011;39790;53.144;6.424;2022-07-23T15:10:38;3.80;;;1.00;;
53877;SDS011;39790;53.144;6.424;2022-07-23T15:13:03;2.22;;;0.93;;
53877;SDS011;39790;53.144;6.424;2022-07-23T15:15:29;3.25;;;1.33;;
53877;SDS011;39790;53.144;6.424;2022-07-23T15:17:55;1.73;;;1.00;;
53877;SDS011;39790;53.144;6.424;2022-07-23T15:20:20;1.65;;;1.10;;
53877;SDS011;39790;53.144;6.424;2022-07-23T15:22:46;3.05;;;1.10;;
53877;SDS011;39790;53.144;6.424;2022-07-23T15:25:13;2.17;;;1.30;;
53877;SDS011;39790;53.144;6.424;2022-07-23T15:27:38;3.05;;;1.30;;
53877;SDS011;39790;53.144;6.424;2022-07-23T15:30:04;1.77;;;0.80;;
53877;SDS011;39790;53.144;6.424;2022-07-23T15:32:30;1.73;;;1.00;;
53877;SDS011;39790;53.144;6.424;2022-07-23T15:34:56;1.75;;;1.02;;